sensor_id;sensor_type;location;lat;lon;timestamp;pressure;altitude;pressure_sealevel;temperature;humidity
21863;BME280;11096;51.338;12.524;2023-03-13T00:01:45;99338.38;;;8.04;nan
21863;BME280;11096;51.338;12.524;2023-03-13T00:04:10;99332.25;;;8.05;nan
21863;BME280;11096;51.338;12.524;2023-03-13T00:06:37;99331.09;;;8.09;nan
21863;BME280;11096;51.338;12.524;2023-03-13T00:09:05;99334.50;;;8.09;nan
21863;BME280;11096;51.338;12.524;2023-03-13T00:11:31;99339.91;;;8.06;nan
21863;BME280;11096;51.338;12.524;2023-03-13T00:13:59;99341.84;;;8.15;nan
21863;BME280;11096;51.338;12.524;2023-03-13T00:16:24;99331.81;;;8.11;nan
21863;BME280;11096;51.338;12.524;2023-03-13T00:18:53;99328.09;;;8.15;nan
21863;BME280;11096;51.338;12.524;2023-03-13T00:21:21;99318.16;;;8.09;nan
21863;BME280;11096;51.338;12.524;2023-03-13T00:23:47;99326.97;;;8.06;nan
21863;BME280;11096;51.338;12.524;2023-03-13T00:26:15;99322.75;;;8.05;nan
21863;BME280;11096;51.338;12.524;2023-03-13T00:28:41;99326.41;;;8.14;nan
21863;BME280;11096;51.338;12.524;2023-03-13T00:31:16;99317.94;;;8.12;nan
21863;BME280;11096;51.338;12.524;2023-03-13T00:33:43;99318.38;;;8.06;nan
21863;BME280;11096;51.338;12.524;2023-03-13T00:36:11;99315.56;;;8.09;nan
21863;BME280;11096;51.338;12.524;2023-03-13T00:38:37;99320.25;;;8.04;nan
21863;BME280;11096;51.338;12.524;2023-03-13T00:43:30;99316.72;;;8.05;nan
21863;BME280;11096;51.338;12.524;2023-03-13T00:45:56;99315.34;;;8.12;nan
21863;BME280;11096;51.338;12.524;2023-03-13T00:48:22;99319.31;;;8.05;nan
21863;BME280;11096;51.338;12.524;2023-03-13T00:50:47;99309.50;;;7.97;nan
21863;BME280;11096;51.338;12.524;2023-03-13T00:53:13;99317.16;;;7.99;nan
21863;BME280;11096;51.338;12.524;2023-03-13T00:55:39;99314.03;;;8.06;nan
21863;BME280;11096;51.338;12.524;2023-03-13T00:58:14;99322.13;;;8.02;nan
21863;BME280;11096;51.338;12.524;2023-03-13T01:00:40;99319.53;;;8.02;nan
21863;BME280;11096;51.338;12.524;2023-03-13T01:03:05;99312.38;;;8.05;nan
21863;BME280;11096;51.338;12.524;2023-03-13T01:05:30;99313.69;;;8.11;nan
21863;BME280;11096;51.338;12.524;2023-03-13T01:07:56;99311.53;;;8.05;nan
21863;BME280;11096;51.338;12.524;2023-03-13T01:10:21;99312.97;;;8.09;nan
21863;BME280;11096;51.338;12.524;2023-03-13T01:12:46;99308.06;;;8.17;nan
21863;BME280;11096;51.338;12.524;2023-03-13T01:15:12;99301.75;;;8.21;nan
21863;BME280;11096;51.338;12.524;2023-03-13T01:17:37;99292.59;;;8.28;nan
21863;BME280;11096;51.338;12.524;2023-03-13T01:20:03;99300.03;;;8.33;nan
21863;BME280;11096;51.338;12.524;2023-03-13T01:22:29;99284.28;;;8.36;nan
21863;BME280;11096;51.338;12.524;2023-03-13T01:24:55;99291.88;;;8.26;nan
21863;BME280;11096;51.338;12.524;2023-03-13T01:27:20;99291.94;;;8.37;nan
21863;BME280;11096;51.338;12.524;2023-03-13T01:29:45;99286.31;;;8.44;nan
21863;BME280;11096;51.338;12.524;2023-03-13T01:32:11;99278.78;;;8.41;nan
21863;BME280;11096;51.338;12.524;2023-03-13T01:34:36;99272.47;;;8.45;nan
21863;BME280;11096;51.338;12.524;2023-03-13T01:37:02;99265.41;;;8.47;nan
21863;BME280;11096;51.338;12.524;2023-03-13T01:39:27;99256.59;;;8.60;nan
21863;BME280;11096;51.338;12.524;2023-03-13T01:41:52;99258.03;;;8.65;nan
21863;BME280;11096;51.338;12.524;2023-03-13T01:44:25;99259.34;;;8.81;nan
21863;BME280;11096;51.338;12.524;2023-03-13T01:46:51;99249.91;;;8.69;nan
21863;BME280;11096;51.338;12.524;2023-03-13T01:49:20;99254.25;;;8.80;nan
21863;BME280;11096;51.338;12.524;2023-03-13T01:51:51;99246.84;;;8.75;nan
21863;BME280;11096;51.338;12.524;2023-03-13T01:54:23;99243.91;;;8.80;nan
21863;BME280;11096;51.338;12.524;2023-03-13T01:56:56;99248.84;;;8.83;nan
21863;BME280;11096;51.338;12.524;2023-03-13T01:59:59;99246.03;;;8.86;nan
21863;BME280;11096;51.338;12.524;2023-03-13T02:02:17;99246.97;;;8.74;nan
21863;BME280;11096;51.338;12.524;2023-03-13T02:04:46;99241.06;;;8.72;nan
21863;BME280;11096;51.338;12.524;2023-03-13T02:07:40;99236.00;;;8.70;nan
21863;BME280;11096;51.338;12.524;2023-03-13T02:10:08;99231.28;;;8.75;nan
21863;BME280;11096;51.338;12.524;2023-03-13T02:12:37;99227.53;;;8.68;nan
21863;BME280;11096;51.338;12.524;2023-03-13T02:15:16;99228.09;;;8.60;nan
21863;BME280;11096;51.338;12.524;2023-03-13T02:17:42;99231.06;;;8.67;nan
21863;BME280;11096;51.338;12.524;2023-03-13T02:20:09;99235.56;;;8.76;nan
21863;BME280;11096;51.338;12.524;2023-03-13T02:28:02;99218.84;;;8.92;nan
21863;BME280;11096;51.338;12.524;2023-03-13T02:30:29;99211.97;;;8.91;nan
21863;BME280;11096;51.338;12.524;2023-03-13T02:32:55;99203.84;;;8.95;nan
21863;BME280;11096;51.338;12.524;2023-03-13T02:35:21;99218.13;;;9.01;nan
21863;BME280;11096;51.338;12.524;2023-03-13T02:37:51;99201.63;;;9.13;nan
21863;BME280;11096;51.338;12.524;2023-03-13T02:40:25;99198.34;;;9.11;nan
21863;BME280;11096;51.338;12.524;2023-03-13T02:42:52;99191.94;;;9.15;nan
21863;BME280;11096;51.338;12.524;2023-03-13T02:45:18;99185.84;;;9.05;nan
21863;BME280;11096;51.338;12.524;2023-03-13T02:47:44;99186.91;;;9.14;nan
21863;BME280;11096;51.338;12.524;2023-03-13T02:50:10;99176.88;;;9.09;nan
21863;BME280;11096;51.338;12.524;2023-03-13T02:52:40;99180.44;;;9.08;nan
21863;BME280;11096;51.338;12.524;2023-03-13T02:55:30;99180.91;;;9.13;nan
21863;BME280;11096;51.338;12.524;2023-03-13T02:57:57;99173.22;;;9.00;nan
21863;BME280;11096;51.338;12.524;2023-03-13T03:00:23;99163.00;;;8.99;nan
21863;BME280;11096;51.338;12.524;2023-03-13T03:02:52;99165.84;;;8.85;nan
21863;BME280;11096;51.338;12.524;2023-03-13T03:05:18;99162.53;;;8.94;nan
21863;BME280;11096;51.338;12.524;2023-03-13T03:07:44;99164.41;;;8.92;nan
21863;BME280;11096;51.338;12.524;2023-03-13T03:10:09;99156.50;;;8.93;nan
21863;BME280;11096;51.338;12.524;2023-03-13T03:12:35;99148.38;;;8.98;nan
21863;BME280;11096;51.338;12.524;2023-03-13T03:15:01;99145.56;;;9.01;nan
21863;BME280;11096;51.338;12.524;2023-03-13T03:17:29;99142.59;;;9.06;nan
21863;BME280;11096;51.338;12.524;2023-03-13T03:19:54;99135.31;;;8.99;nan
21863;BME280;11096;51.338;12.524;2023-03-13T03:22:19;99140.34;;;9.12;nan
21863;BME280;11096;51.338;12.524;2023-03-13T03:24:45;99127.28;;;9.02;nan
21863;BME280;11096;51.338;12.524;2023-03-13T03:27:10;99121.03;;;9.05;nan
21863;BME280;11096;51.338;12.524;2023-03-13T03:29:35;99113.50;;;9.13;nan
21863;BME280;11096;51.338;12.524;2023-03-13T03:32:01;99114.44;;;9.12;nan
21863;BME280;11096;51.338;12.524;2023-03-13T03:34:26;99108.31;;;9.13;nan
21863;BME280;11096;51.338;12.524;2023-03-13T03:36:52;99114.44;;;9.12;nan
21863;BME280;11096;51.338;12.524;2023-03-13T03:39:17;99098.63;;;9.15;nan
21863;BME280;11096;51.338;12.524;2023-03-13T03:41:43;99100.91;;;9.09;nan
21863;BME280;11096;51.338;12.524;2023-03-13T03:44:08;99090.84;;;9.15;nan
21863;BME280;11096;51.338;12.524;2023-03-13T03:46:33;99092.28;;;9.19;nan
21863;BME280;11096;51.338;12.524;2023-03-13T03:48:59;99084.75;;;9.16;nan
21863;BME280;11096;51.338;12.524;2023-03-13T03:51:24;99081.78;;;9.21;nan
21863;BME280;11096;51.338;12.524;2023-03-13T03:53:50;99076.81;;;9.18;nan
21863;BME280;11096;51.338;12.524;2023-03-13T03:56:15;99078.41;;;9.09;nan
21863;BME280;11096;51.338;12.524;2023-03-13T03:58:40;99072.22;;;9.21;nan
21863;BME280;11096;51.338;12.524;2023-03-13T04:01:06;99065.38;;;9.20;nan
21863;BME280;11096;51.338;12.524;2023-03-13T04:03:31;99059.22;;;9.33;nan
21863;BME280;11096;51.338;12.524;2023-03-13T04:05:57;99056.13;;;9.39;nan
21863;BME280;11096;51.338;12.524;2023-03-13T04:08:22;99055.81;;;9.32;nan
21863;BME280;11096;51.338;12.524;2023-03-13T04:10:48;99047.16;;;9.43;nan
21863;BME280;11096;51.338;12.524;2023-03-13T04:13:13;99050.66;;;9.53;nan
21863;BME280;11096;51.338;12.524;2023-03-13T04:15:39;99040.41;;;9.52;nan
21863;BME280;11096;51.338;12.524;2023-03-13T04:18:05;99038.25;;;9.57;nan
21863;BME280;11096;51.338;12.524;2023-03-13T04:20:30;99031.75;;;9.62;nan
21863;BME280;11096;51.338;12.524;2023-03-13T04:22:56;99031.34;;;9.67;nan
21863;BME280;11096;51.338;12.524;2023-03-13T04:25:21;99027.38;;;9.63;nan
21863;BME280;11096;51.338;12.524;2023-03-13T04:27:47;99018.94;;;9.71;nan
21863;BME280;11096;51.338;12.524;2023-03-13T04:30:12;99012.03;;;9.81;nan
21863;BME280;11096;51.338;12.524;2023-03-13T04:32:38;99003.94;;;9.74;nan
21863;BME280;11096;51.338;12.524;2023-03-13T04:35:03;99007.63;;;9.72;nan
21863;BME280;11096;51.338;12.524;2023-03-13T04:37:29;99012.09;;;9.70;nan
21863;BME280;11096;51.338;12.524;2023-03-13T04:39:54;98994.66;;;9.72;nan
21863;BME280;11096;51.338;12.524;2023-03-13T04:42:20;98988.19;;;9.66;nan
21863;BME280;11096;51.338;12.524;2023-03-13T04:44:45;98971.19;;;9.73;nan
21863;BME280;11096;51.338;12.524;2023-03-13T04:47:10;98972.97;;;9.73;nan
21863;BME280;11096;51.338;12.524;2023-03-13T04:49:36;98968.97;;;9.68;nan
21863;BME280;11096;51.338;12.524;2023-03-13T04:52:01;98967.84;;;9.61;nan
21863;BME280;11096;51.338;12.524;2023-03-13T04:54:27;98960.88;;;9.62;nan
21863;BME280;11096;51.338;12.524;2023-03-13T04:56:52;98971.25;;;9.62;nan
21863;BME280;11096;51.338;12.524;2023-03-13T04:59:18;98968.09;;;9.58;nan
21863;BME280;11096;51.338;12.524;2023-03-13T05:01:43;98962.38;;;9.64;nan
21863;BME280;11096;51.338;12.524;2023-03-13T05:04:09;98949.28;;;9.66;nan
21863;BME280;11096;51.338;12.524;2023-03-13T05:06:35;98943.56;;;9.62;nan
21863;BME280;11096;51.338;12.524;2023-03-13T05:09:01;98934.50;;;9.57;nan
21863;BME280;11096;51.338;12.524;2023-03-13T05:11:27;98937.56;;;9.41;nan
21863;BME280;11096;51.338;12.524;2023-03-13T05:13:52;98935.78;;;9.41;nan
21863;BME280;11096;51.338;12.524;2023-03-13T05:16:18;98927.19;;;9.41;nan
21863;BME280;11096;51.338;12.524;2023-03-13T05:18:43;98926.66;;;9.47;nan
21863;BME280;11096;51.338;12.524;2023-03-13T05:21:10;98912.84;;;9.37;nan
21863;BME280;11096;51.338;12.524;2023-03-13T05:23:35;98912.34;;;9.43;nan
21863;BME280;11096;51.338;12.524;2023-03-13T05:26:01;98907.44;;;9.50;nan
21863;BME280;11096;51.338;12.524;2023-03-13T05:28:26;98893.66;;;14.88;nan
21863;BME280;11096;51.338;12.524;2023-03-13T05:30:52;98877.34;;;14.10;nan
21863;BME280;11096;51.338;12.524;2023-03-13T05:33:17;98868.31;;;13.88;nan
21863;BME280;11096;51.338;12.524;2023-03-13T05:35:44;98853.00;;;14.02;nan
21863;BME280;11096;51.338;12.524;2023-03-13T05:38:10;98847.72;;;14.85;nan
21863;BME280;11096;51.338;12.524;2023-03-13T05:40:36;98853.75;;;14.86;nan
21863;BME280;11096;51.338;12.524;2023-03-13T05:43:01;98851.97;;;14.78;nan
21863;BME280;11096;51.338;12.524;2023-03-13T05:45:27;98843.88;;;15.37;nan
21863;BME280;11096;51.338;12.524;2023-03-13T05:47:52;98835.41;;;15.10;nan
21863;BME280;11096;51.338;12.524;2023-03-13T05:50:18;98823.63;;;15.06;nan
21863;BME280;11096;51.338;12.524;2023-03-13T05:52:43;98818.75;;;15.03;nan
21863;BME280;11096;51.338;12.524;2023-03-13T05:55:09;98805.06;;;14.85;nan
21863;BME280;11096;51.338;12.524;2023-03-13T05:57:34;98810.91;;;15.03;nan
21863;BME280;11096;51.338;12.524;2023-03-13T06:00:00;98797.81;;;15.11;nan
21863;BME280;11096;51.338;12.524;2023-03-13T06:02:25;98796.53;;;14.99;nan
21863;BME280;11096;51.338;12.524;2023-03-13T06:04:51;98791.81;;;15.42;nan
21863;BME280;11096;51.338;12.524;2023-03-13T06:07:16;98784.75;;;14.95;nan
21863;BME280;11096;51.338;12.524;2023-03-13T06:09:41;98775.16;;;14.54;nan
21863;BME280;11096;51.338;12.524;2023-03-13T06:12:08;98782.19;;;14.70;nan
21863;BME280;11096;51.338;12.524;2023-03-13T06:14:34;98794.56;;;14.11;nan
21863;BME280;11096;51.338;12.524;2023-03-13T06:17:00;98824.94;;;8.82;nan
21863;BME280;11096;51.338;12.524;2023-03-13T06:19:25;98907.41;;;10.21;nan
21863;BME280;11096;51.338;12.524;2023-03-13T06:21:51;98964.13;;;10.85;nan
21863;BME280;11096;51.338;12.524;2023-03-13T06:24:16;98925.16;;;13.34;nan
21863;BME280;11096;51.338;12.524;2023-03-13T06:26:42;98921.94;;;14.17;nan
21863;BME280;11096;51.338;12.524;2023-03-13T06:29:08;98916.78;;;12.68;nan
21863;BME280;11096;51.338;12.524;2023-03-13T06:31:34;98829.06;;;29.60;nan
21863;BME280;11096;51.338;12.524;2023-03-13T06:33:59;98834.41;;;21.91;nan
21863;BME280;11096;51.338;12.524;2023-03-13T06:36:25;98858.00;;;12.92;nan
21863;BME280;11096;51.338;12.524;2023-03-13T06:38:50;98781.41;;;44.91;nan
21863;BME280;11096;51.338;12.524;2023-03-13T06:41:15;98835.75;;;16.48;nan
21863;BME280;11096;51.338;12.524;2023-03-13T06:43:41;98833.16;;;14.99;nan
21863;BME280;11096;51.338;12.524;2023-03-13T06:46:07;98898.88;;;27.75;nan
21863;BME280;11096;51.338;12.524;2023-03-13T06:48:33;98797.94;;;32.37;nan
21863;BME280;11096;51.338;12.524;2023-03-13T06:50:58;98753.91;;;33.91;nan
21863;BME280;11096;51.338;12.524;2023-03-13T06:53:24;98788.91;;;17.72;nan
21863;BME280;11096;51.338;12.524;2023-03-13T06:55:50;98785.09;;;20.20;nan
21863;BME280;11096;51.338;12.524;2023-03-13T06:58:16;98824.09;;;13.44;nan
21863;BME280;11096;51.338;12.524;2023-03-13T07:00:42;98829.50;;;12.99;nan
21863;BME280;11096;51.338;12.524;2023-03-13T07:03:09;98828.63;;;13.16;nan
21863;BME280;11096;51.338;12.524;2023-03-13T07:05:35;98829.91;;;12.86;nan
21863;BME280;11096;51.338;12.524;2023-03-13T07:08:01;98809.84;;;13.04;nan
21863;BME280;11096;51.338;12.524;2023-03-13T07:10:27;98800.38;;;12.59;nan
21863;BME280;11096;51.338;12.524;2023-03-13T07:12:52;98769.44;;;27.99;nan
21863;BME280;11096;51.338;12.524;2023-03-13T07:15:18;98777.41;;;13.41;nan
21863;BME280;11096;51.338;12.524;2023-03-13T07:17:43;98783.09;;;13.02;nan
21863;BME280;11096;51.338;12.524;2023-03-13T07:20:09;98773.19;;;12.62;nan
21863;BME280;11096;51.338;12.524;2023-03-13T07:22:35;98762.00;;;12.25;nan
21863;BME280;11096;51.338;12.524;2023-03-13T07:25:02;98755.03;;;12.08;nan
21863;BME280;11096;51.338;12.524;2023-03-13T07:27:27;98747.81;;;12.02;nan
21863;BME280;11096;51.338;12.524;2023-03-13T07:29:53;98727.44;;;11.97;nan
21863;BME280;11096;51.338;12.524;2023-03-13T07:32:18;98728.59;;;11.85;nan
21863;BME280;11096;51.338;12.524;2023-03-13T07:34:44;98723.28;;;12.05;nan
21863;BME280;11096;51.338;12.524;2023-03-13T07:37:11;98720.44;;;11.98;nan
21863;BME280;11096;51.338;12.524;2023-03-13T07:39:36;98709.69;;;11.83;nan
21863;BME280;11096;51.338;12.524;2023-03-13T07:42:02;98720.88;;;11.93;nan
21863;BME280;11096;51.338;12.524;2023-03-13T07:44:27;98718.78;;;11.79;nan
21863;BME280;11096;51.338;12.524;2023-03-13T07:46:53;98713.50;;;11.89;nan
21863;BME280;11096;51.338;12.524;2023-03-13T07:49:18;98713.84;;;12.03;nan
21863;BME280;11096;51.338;12.524;2023-03-13T07:51:43;98720.72;;;12.13;nan
21863;BME280;11096;51.338;12.524;2023-03-13T07:54:12;98714.41;;;12.15;nan
21863;BME280;11096;51.338;12.524;2023-03-13T07:56:38;98710.72;;;12.44;nan
21863;BME280;11096;51.338;12.524;2023-03-13T07:59:03;98710.47;;;12.55;nan
21863;BME280;11096;51.338;12.524;2023-03-13T08:01:29;98721.44;;;12.41;nan
21863;BME280;11096;51.338;12.524;2023-03-13T08:03:54;98720.16;;;12.45;nan
21863;BME280;11096;51.338;12.524;2023-03-13T08:06:24;98711.47;;;12.88;nan
21863;BME280;11096;51.338;12.524;2023-03-13T08:08:51;98710.44;;;12.81;nan
21863;BME280;11096;51.338;12.524;2023-03-13T08:11:22;98707.69;;;12.83;nan
21863;BME280;11096;51.338;12.524;2023-03-13T08:13:49;98701.78;;;12.73;nan
21863;BME280;11096;51.338;12.524;2023-03-13T08:16:17;98693.88;;;12.64;nan
21863;BME280;11096;51.338;12.524;2023-03-13T08:18:45;98689.47;;;12.91;nan
21863;BME280;11096;51.338;12.524;2023-03-13T08:21:13;98706.56;;;12.59;nan
21863;BME280;11096;51.338;12.524;2023-03-13T08:23:39;98691.84;;;12.50;nan
21863;BME280;11096;51.338;12.524;2023-03-13T08:26:06;98700.59;;;12.41;nan
21863;BME280;11096;51.338;12.524;2023-03-13T08:28:32;98706.25;;;12.62;nan
21863;BME280;11096;51.338;12.524;2023-03-13T08:30:58;98696.16;;;12.59;nan
21863;BME280;11096;51.338;12.524;2023-03-13T08:33:23;98686.22;;;12.37;nan
21863;BME280;11096;51.338;12.524;2023-03-13T08:35:49;98668.00;;;12.37;nan
21863;BME280;11096;51.338;12.524;2023-03-13T08:38:14;98667.16;;;12.28;nan
21863;BME280;11096;51.338;12.524;2023-03-13T08:40:40;98675.88;;;12.01;nan
21863;BME280;11096;51.338;12.524;2023-03-13T08:43:05;98649.47;;;26.28;nan
21863;BME280;11096;51.338;12.524;2023-03-13T08:45:30;98691.19;;;15.76;nan
21863;BME280;11096;51.338;12.524;2023-03-13T08:47:56;98684.88;;;16.08;nan
21863;BME280;11096;51.338;12.524;2023-03-13T08:50:21;98691.03;;;13.85;nan
21863;BME280;11096;51.338;12.524;2023-03-13T08:52:47;98685.53;;;16.10;nan
21863;BME280;11096;51.338;12.524;2023-03-13T08:55:12;98686.41;;;14.69;nan
21863;BME280;11096;51.338;12.524;2023-03-13T08:57:37;98691.72;;;14.04;nan
21863;BME280;11096;51.338;12.524;2023-03-13T09:00:03;98681.91;;;14.30;nan
21863;BME280;11096;51.338;12.524;2023-03-13T09:02:31;98676.63;;;14.63;nan
21863;BME280;11096;51.338;12.524;2023-03-13T09:04:56;98677.94;;;14.59;nan
21863;BME280;11096;51.338;12.524;2023-03-13T09:07:21;98679.44;;;15.01;nan
21863;BME280;11096;51.338;12.524;2023-03-13T09:09:47;98679.56;;;14.52;nan
21863;BME280;11096;51.338;12.524;2023-03-13T09:12:12;98665.19;;;14.64;nan
21863;BME280;11096;51.338;12.524;2023-03-13T09:14:37;98660.16;;;14.46;nan
21863;BME280;11096;51.338;12.524;2023-03-13T09:17:03;98665.09;;;14.33;nan
21863;BME280;11096;51.338;12.524;2023-03-13T09:19:29;98659.38;;;14.21;nan
21863;BME280;11096;51.338;12.524;2023-03-13T09:21:54;98670.63;;;14.30;nan
21863;BME280;11096;51.338;12.524;2023-03-13T09:24:19;98672.13;;;14.32;nan
21863;BME280;11096;51.338;12.524;2023-03-13T09:26:45;98655.78;;;14.30;nan
21863;BME280;11096;51.338;12.524;2023-03-13T09:29:10;98660.38;;;14.20;nan
21863;BME280;11096;51.338;12.524;2023-03-13T09:31:36;98671.16;;;14.01;nan
21863;BME280;11096;51.338;12.524;2023-03-13T09:34:02;98674.72;;;14.16;nan
21863;BME280;11096;51.338;12.524;2023-03-13T09:36:28;98670.28;;;15.36;nan
21863;BME280;11096;51.338;12.524;2023-03-13T09:38:57;98660.41;;;15.78;nan
21863;BME280;11096;51.338;12.524;2023-03-13T09:42:12;98660.41;;;15.15;nan
21863;BME280;11096;51.338;12.524;2023-03-13T09:45:16;98664.78;;;14.92;nan
21863;BME280;11096;51.338;12.524;2023-03-13T09:47:45;98659.53;;;15.85;nan
21863;BME280;11096;51.338;12.524;2023-03-13T09:50:35;98653.47;;;15.31;nan
21863;BME280;11096;51.338;12.524;2023-03-13T09:53:13;98645.16;;;15.50;nan
21863;BME280;11096;51.338;12.524;2023-03-13T09:55:41;98648.03;;;14.70;nan
21863;BME280;11096;51.338;12.524;2023-03-13T09:58:22;98672.19;;;15.19;nan
21863;BME280;11096;51.338;12.524;2023-03-13T10:00:55;98669.47;;;15.05;nan
21863;BME280;11096;51.338;12.524;2023-03-13T10:03:28;98671.94;;;14.98;nan
21863;BME280;11096;51.338;12.524;2023-03-13T10:05:57;98685.47;;;14.29;nan
21863;BME280;11096;51.338;12.524;2023-03-13T10:08:25;98689.22;;;14.43;nan
21863;BME280;11096;51.338;12.524;2023-03-13T10:11:08;98677.84;;;14.11;nan
21863;BME280;11096;51.338;12.524;2023-03-13T10:13:46;98686.81;;;13.92;nan
21863;BME280;11096;51.338;12.524;2023-03-13T10:16:19;98674.75;;;14.08;nan
21863;BME280;11096;51.338;12.524;2023-03-13T10:18:48;98671.28;;;14.07;nan
21863;BME280;11096;51.338;12.524;2023-03-13T10:21:19;98675.72;;;14.23;nan
21863;BME280;11096;51.338;12.524;2023-03-13T10:24:04;98676.34;;;14.33;nan
21863;BME280;11096;51.338;12.524;2023-03-13T10:26:36;98677.22;;;14.90;nan
21863;BME280;11096;51.338;12.524;2023-03-13T10:29:21;98678.25;;;14.64;nan
21863;BME280;11096;51.338;12.524;2023-03-13T10:34:23;98674.16;;;14.78;nan
21863;BME280;11096;51.338;12.524;2023-03-13T10:36:54;98676.31;;;14.58;nan
21863;BME280;11096;51.338;12.524;2023-03-13T10:39:22;98669.81;;;15.01;nan
21863;BME280;11096;51.338;12.524;2023-03-13T10:41:48;98666.94;;;14.80;nan
21863;BME280;11096;51.338;12.524;2023-03-13T10:44:17;98661.13;;;14.53;nan
21863;BME280;11096;51.338;12.524;2023-03-13T10:46:45;98657.22;;;14.57;nan
21863;BME280;11096;51.338;12.524;2023-03-13T10:51:45;98646.41;;;14.52;nan
21863;BME280;11096;51.338;12.524;2023-03-13T10:54:24;98641.16;;;15.08;nan
21863;BME280;11096;51.338;12.524;2023-03-13T10:57:23;98628.50;;;14.89;nan
21863;BME280;11096;51.338;12.524;2023-03-13T10:59:52;98628.78;;;14.54;nan
21863;BME280;11096;51.338;12.524;2023-03-13T11:02:35;98626.16;;;15.02;nan
21863;BME280;11096;51.338;12.524;2023-03-13T11:05:02;98616.91;;;14.83;nan
21863;BME280;11096;51.338;12.524;2023-03-13T11:07:46;98606.41;;;14.91;nan
21863;BME280;11096;51.338;12.524;2023-03-13T11:10:20;98604.44;;;15.24;nan
21863;BME280;11096;51.338;12.524;2023-03-13T11:12:50;98595.13;;;15.22;nan
21863;BME280;11096;51.338;12.524;2023-03-13T11:15:24;98594.25;;;15.30;nan
21863;BME280;11096;51.338;12.524;2023-03-13T11:17:59;98578.53;;;16.14;nan
21863;BME280;11096;51.338;12.524;2023-03-13T11:20:35;98570.81;;;15.59;nan
21863;BME280;11096;51.338;12.524;2023-03-13T11:23:24;98575.75;;;16.30;nan
21863;BME280;11096;51.338;12.524;2023-03-13T11:26:01;98573.38;;;16.65;nan
21863;BME280;11096;51.338;12.524;2023-03-13T11:37:01;98539.56;;;17.77;nan
21863;BME280;11096;51.338;12.524;2023-03-13T11:42:53;98538.06;;;17.90;nan
21863;BME280;11096;51.338;12.524;2023-03-13T11:45:49;98525.91;;;18.23;nan
21863;BME280;11096;51.338;12.524;2023-03-13T11:48:28;98519.19;;;18.14;nan
21863;BME280;11096;51.338;12.524;2023-03-13T11:54:26;98514.19;;;17.63;nan
21863;BME280;11096;51.338;12.524;2023-03-13T11:59:41;98505.78;;;17.46;nan
21863;BME280;11096;51.338;12.524;2023-03-13T12:02:22;98509.38;;;18.30;nan
21863;BME280;11096;51.338;12.524;2023-03-13T12:05:03;98499.13;;;19.69;nan
21863;BME280;11096;51.338;12.524;2023-03-13T12:08:00;98514.34;;;21.54;nan
21863;BME280;11096;51.338;12.524;2023-03-13T12:10:32;98510.50;;;22.67;nan
21863;BME280;11096;51.338;12.524;2023-03-13T12:15:33;98518.00;;;26.12;nan
21863;BME280;11096;51.338;12.524;2023-03-13T12:18:04;98511.00;;;24.59;nan
21863;BME280;11096;51.338;12.524;2023-03-13T12:20:41;98525.38;;;20.81;nan
21863;BME280;11096;51.338;12.524;2023-03-13T12:23:26;98534.75;;;20.12;nan
21863;BME280;11096;51.338;12.524;2023-03-13T12:30:55;98530.47;;;18.08;nan
21863;BME280;11096;51.338;12.524;2023-03-13T12:33:30;98518.72;;;17.76;nan
21863;BME280;11096;51.338;12.524;2023-03-13T12:38:55;98526.38;;;17.21;nan
21863;BME280;11096;51.338;12.524;2023-03-13T12:41:41;98520.50;;;17.47;nan
21863;BME280;11096;51.338;12.524;2023-03-13T12:44:10;98511.16;;;17.88;nan
21863;BME280;11096;51.338;12.524;2023-03-13T12:46:43;98496.25;;;18.91;nan
21863;BME280;11096;51.338;12.524;2023-03-13T13:00:21;98501.50;;;18.01;nan
21863;BME280;11096;51.338;12.524;2023-03-13T13:05:27;98496.50;;;17.78;nan
21863;BME280;11096;51.338;12.524;2023-03-13T13:07:54;98482.94;;;18.03;nan
21863;BME280;11096;51.338;12.524;2023-03-13T13:10:22;98474.38;;;18.29;nan
21863;BME280;11096;51.338;12.524;2023-03-13T13:15:41;98470.56;;;18.45;nan
21863;BME280;11096;51.338;12.524;2023-03-13T13:18:14;98459.50;;;18.08;nan
21863;BME280;11096;51.338;12.524;2023-03-13T13:20:47;98455.41;;;17.99;nan
21863;BME280;11096;51.338;12.524;2023-03-13T13:28:51;98455.41;;;17.99;nan
21863;BME280;11096;51.338;12.524;2023-03-13T13:34:06;98444.03;;;18.33;nan
21863;BME280;11096;51.338;12.524;2023-03-13T13:36:39;98451.75;;;18.48;nan
21863;BME280;11096;51.338;12.524;2023-03-13T13:39:29;98456.47;;;18.66;nan
21863;BME280;11096;51.338;12.524;2023-03-13T13:41:56;98453.34;;;18.29;nan
21863;BME280;11096;51.338;12.524;2023-03-13T13:44:28;98452.75;;;18.40;nan
21863;BME280;11096;51.338;12.524;2023-03-13T13:46:56;98454.59;;;17.92;nan
21863;BME280;11096;51.338;12.524;2023-03-13T13:49:29;98453.63;;;17.99;nan
21863;BME280;11096;51.338;12.524;2023-03-13T13:57:19;98438.63;;;17.37;nan
21863;BME280;11096;51.338;12.524;2023-03-13T14:00:00;98434.94;;;17.53;nan
21863;BME280;11096;51.338;12.524;2023-03-13T14:02:33;98438.25;;;17.68;nan
21863;BME280;11096;51.338;12.524;2023-03-13T14:05:01;98436.25;;;17.70;nan
21863;BME280;11096;51.338;12.524;2023-03-13T14:10:20;98429.56;;;17.74;nan
21863;BME280;11096;51.338;12.524;2023-03-13T14:12:53;98424.88;;;17.63;nan
21863;BME280;11096;51.338;12.524;2023-03-13T14:17:50;98418.16;;;17.89;nan
21863;BME280;11096;51.338;12.524;2023-03-13T14:20:35;98424.50;;;18.01;nan
21863;BME280;11096;51.338;12.524;2023-03-13T14:23:09;98399.56;;;18.45;nan
21863;BME280;11096;51.338;12.524;2023-03-13T14:25:50;98393.69;;;18.43;nan
21863;BME280;11096;51.338;12.524;2023-03-13T14:28:23;98391.00;;;18.16;nan
21863;BME280;11096;51.338;12.524;2023-03-13T14:30:52;98399.16;;;17.87;nan
21863;BME280;11096;51.338;12.524;2023-03-13T14:33:18;98400.63;;;17.61;nan
21863;BME280;11096;51.338;12.524;2023-03-13T14:35:44;98380.75;;;17.52;nan
21863;BME280;11096;51.338;12.524;2023-03-13T14:38:22;98389.72;;;17.64;nan
21863;BME280;11096;51.338;12.524;2023-03-13T14:40:49;98389.72;;;17.64;nan